createdAt,value
2018-05-27T00:00:18.446Z,18.57
2018-05-27T00:01:27.309Z,18.57
2018-05-27T00:02:36.178Z,18.57
2018-05-27T00:03:45.315Z,18.55
2018-05-27T00:04:54.179Z,18.5
2018-05-27T00:06:03.041Z,18.52
2018-05-27T00:07:11.905Z,18.41
2018-05-27T00:08:21.044Z,18.41
2018-05-27T00:09:30.184Z,18.47
2018-05-27T00:10:39.044Z,18.5
2018-05-27T00:11:47.912Z,18.41
2018-05-27T00:12:56.774Z,18.33
2018-05-27T00:14:05.637Z,18.3
2018-05-27T00:15:14.776Z,18.32
2018-05-27T00:16:23.638Z,18.3
2018-05-27T00:17:32.503Z,18.25
2018-05-27T00:18:41.646Z,18.21
2018-05-27T00:19:50.510Z,18.21
2018-05-27T00:20:59.657Z,18.17
2018-05-27T00:22:08.522Z,18.32
2018-05-27T00:23:17.676Z,18.26
2018-05-27T00:24:26.541Z,18.14
2018-05-27T00:25:35.406Z,18.27
2018-05-27T00:26:44.269Z,18.26
2018-05-27T00:27:53.132Z,18.26
2018-05-27T00:29:01.994Z,18.26
2018-05-27T00:30:10.858Z,18.21
2018-05-27T00:31:19.719Z,18.23
2018-05-27T00:32:28.588Z,18.15
2018-05-27T00:33:37.458Z,18.07
2018-05-27T00:34:46.368Z,17.97
2018-05-27T00:35:55.234Z,17.96
2018-05-27T00:37:04.099Z,17.93
2018-05-27T00:38:12.960Z,17.97
2018-05-27T00:39:21.826Z,17.95
2018-05-27T00:40:30.689Z,18.07
2018-05-27T00:41:39.552Z,18.14
2018-05-27T00:42:48.418Z,18
2018-05-27T00:43:57.279Z,18.02
2018-05-27T00:45:06.142Z,17.97
2018-05-27T00:46:15.280Z,17.96
2018-05-27T00:47:24.140Z,17.92
2018-05-27T00:48:33.000Z,17.77
2018-05-27T00:49:41.871Z,17.89
2018-05-27T00:50:51.300Z,17.89
2018-05-27T00:52:00.490Z,17.87
2018-05-27T00:53:09.299Z,17.92
2018-05-27T00:54:18.164Z,17.92
2018-05-27T00:55:27.027Z,17.75
2018-05-27T00:56:36.169Z,17.84
2018-05-27T00:57:45.040Z,17.84
2018-05-27T00:58:54.182Z,17.75
2018-05-27T01:00:03.053Z,17.77
2018-05-27T01:01:11.915Z,17.75
2018-05-27T01:02:20.779Z,17.77
2018-05-27T01:03:29.646Z,17.7
2018-05-27T01:04:38.506Z,17.72
2018-05-27T01:05:47.648Z,17.77
2018-05-27T01:06:56.510Z,17.71
2018-05-27T01:08:05.373Z,17.71
2018-05-27T01:09:14.289Z,17.68
2018-05-27T01:10:23.430Z,17.64
2018-05-27T01:11:32.580Z,17.54
2018-05-27T01:12:41.440Z,17.51
2018-05-27T01:13:50.583Z,17.56
2018-05-27T01:14:59.451Z,17.59
2018-05-27T01:16:08.602Z,17.59
2018-05-27T01:17:17.746Z,17.62
2018-05-27T01:18:26.890Z,17.56
2018-05-27T01:19:35.754Z,17.43
2018-05-27T01:20:44.619Z,17.41
2018-05-27T01:21:53.486Z,17.37
2018-05-27T01:23:02.347Z,17.41
2018-05-27T01:24:11.209Z,17.55
2018-05-27T01:25:20.072Z,17.56
2018-05-27T01:26:28.987Z,17.48
2018-05-27T01:27:37.850Z,17.4
2018-05-27T01:28:46.714Z,17.31
2018-05-27T01:29:55.578Z,17.41
2018-05-27T01:31:04.445Z,17.37
2018-05-27T01:32:13.580Z,17.3
2018-05-27T01:33:22.723Z,17.3
2018-05-27T01:34:31.591Z,17.3
2018-05-27T01:35:40.449Z,17.14
2018-05-27T01:36:49.310Z,17.16
2018-05-27T01:37:58.174Z,17.18
2018-05-27T01:39:07.600Z,17.19
2018-05-27T01:40:16.464Z,17.23
2018-05-27T01:41:25.601Z,17.14
2018-05-27T01:42:34.466Z,17.21
2018-05-27T01:43:43.326Z,17.16
2018-05-27T01:44:52.189Z,17.22
2018-05-27T01:46:01.051Z,17.07
2018-05-27T01:47:09.914Z,17.11
2018-05-27T01:48:18.780Z,17
2018-05-27T01:49:27.642Z,17.04
2018-05-27T01:50:36.507Z,17.08
2018-05-27T01:51:45.370Z,17.06
2018-05-27T01:52:54.556Z,17.06
2018-05-27T01:54:03.661Z,17.18
2018-05-27T01:55:12.803Z,17.16
2018-05-27T01:56:21.944Z,17.14
2018-05-27T01:57:30.809Z,17.11
2018-05-27T01:58:39.671Z,17.08
2018-05-27T01:59:48.536Z,17.08
2018-05-27T02:00:57.727Z,17.06
2018-05-27T02:02:06.593Z,17.18
2018-05-27T02:03:15.452Z,17.12
2018-05-27T02:04:24.317Z,17.08
2018-05-27T02:05:33.458Z,17.03
2018-05-27T02:06:42.321Z,16.93
2018-05-27T02:07:51.183Z,16.88
2018-05-27T02:09:00.045Z,17.03
2018-05-27T02:10:08.908Z,17.01
2018-05-27T02:11:17.772Z,16.93
2018-05-27T02:12:27.241Z,16.85
2018-05-27T02:13:36.104Z,16.86
2018-05-27T02:14:44.965Z,16.81
2018-05-27T02:15:54.109Z,16.85
2018-05-27T02:17:02.972Z,16.93
2018-05-27T02:18:11.882Z,16.89
2018-05-27T02:19:21.028Z,16.89
2018-05-27T02:20:29.892Z,16.81
2018-05-27T02:21:38.756Z,16.75
2018-05-27T02:22:47.620Z,16.81
2018-05-27T02:23:56.493Z,16.76
2018-05-27T02:25:05.344Z,16.88
2018-05-27T02:26:14.207Z,16.76
2018-05-27T02:27:23.401Z,16.78
2018-05-27T02:28:32.266Z,16.78
2018-05-27T02:29:41.129Z,16.71
2018-05-27T02:30:50.271Z,16.64
2018-05-27T02:31:59.412Z,16.71
2018-05-27T02:33:08.833Z,16.71
2018-05-27T02:34:18.253Z,16.71
2018-05-27T02:35:27.121Z,16.71
2018-05-27T02:36:36.265Z,16.57
2018-05-27T02:37:45.403Z,16.57
2018-05-27T02:38:54.830Z,16.48
2018-05-27T02:40:04.002Z,16.48
2018-05-27T02:41:12.868Z,16.52
2018-05-27T02:42:22.009Z,16.48
2018-05-27T02:43:30.872Z,16.49
2018-05-27T02:44:39.735Z,16.5
2018-05-27T02:45:48.595Z,16.42
2018-05-27T02:46:57.747Z,16.48
2018-05-27T02:48:07.169Z,16.34
2018-05-27T02:49:16.583Z,16.21
2018-05-27T02:50:25.445Z,16.24
2018-05-27T02:51:34.790Z,16.17
2018-05-27T02:52:43.713Z,16.24
2018-05-27T02:53:52.569Z,16.21
2018-05-27T02:55:01.432Z,16.14
2018-05-27T02:56:10.296Z,16.39
2018-05-27T02:57:19.437Z,16.33
2018-05-27T02:58:28.585Z,16.35
2018-05-27T02:59:37.725Z,16.38
2018-05-27T03:00:47.152Z,16.39
2018-05-27T03:01:56.376Z,16.27
2018-05-27T03:03:05.807Z,16.3
2018-05-27T03:04:14.958Z,16.34
2018-05-27T03:05:23.836Z,16.27
2018-05-27T03:06:32.991Z,16.21
2018-05-27T03:07:42.132Z,16.25
2018-05-27T03:08:51.272Z,16.24
2018-05-27T03:10:00.192Z,16.2
2018-05-27T03:11:09.891Z,16.14
2018-05-27T03:12:18.797Z,16.02
2018-05-27T03:13:27.898Z,16
2018-05-27T03:14:36.765Z,16.01
2018-05-27T03:15:45.625Z,15.97
2018-05-27T03:16:54.489Z,16.09
2018-05-27T03:18:03.968Z,16.09
2018-05-27T03:19:12.828Z,16.2
2018-05-27T03:20:21.689Z,16.07
2018-05-27T03:21:30.551Z,16.14
2018-05-27T03:22:39.692Z,16.01
2018-05-27T03:23:48.882Z,16.05
2018-05-27T03:24:57.743Z,16.04
2018-05-27T03:26:06.607Z,16.02
2018-05-27T03:27:15.520Z,15.94
2018-05-27T03:28:24.661Z,16
2018-05-27T03:29:33.525Z,16.02
2018-05-27T03:30:42.395Z,15.97
2018-05-27T03:31:51.827Z,15.92
2018-05-27T03:33:01.242Z,15.93
2018-05-27T03:34:10.105Z,16.05
2018-05-27T03:35:18.968Z,16
2018-05-27T03:36:28.110Z,15.9
2018-05-27T03:37:36.973Z,16.02
2018-05-27T03:38:45.836Z,16.07
2018-05-27T03:39:54.699Z,16.05
2018-05-27T03:41:03.569Z,16.04
2018-05-27T03:42:12.431Z,16.01
2018-05-27T03:43:21.297Z,16.02
2018-05-27T03:44:30.485Z,15.93
2018-05-27T03:45:39.350Z,16.05
2018-05-27T03:46:48.211Z,16
2018-05-27T03:47:57.077Z,15.96
2018-05-27T03:49:06.219Z,16.02
2018-05-27T03:50:15.083Z,16.01
2018-05-27T03:51:23.946Z,16.07
2018-05-27T03:52:32.811Z,16.05
2018-05-27T03:53:41.671Z,15.93
2018-05-27T03:54:50.534Z,15.97
2018-05-27T03:55:59.398Z,15.96
2018-05-27T03:57:08.536Z,15.94
2018-05-27T03:58:17.406Z,15.96
2018-05-27T03:59:26.262Z,15.97
2018-05-27T04:00:35.126Z,15.94
2018-05-27T04:01:44.042Z,15.97
2018-05-27T04:02:52.907Z,15.9
2018-05-27T04:04:02.052Z,15.94
2018-05-27T04:05:11.212Z,16.01
2018-05-27T04:06:20.349Z,15.97
2018-05-27T04:07:29.774Z,15.96
2018-05-27T04:08:38.918Z,16.01
2018-05-27T04:09:48.055Z,15.89
2018-05-27T04:10:56.918Z,15.92
2018-05-27T04:12:05.782Z,15.92
2018-05-27T04:13:14.643Z,15.94
2018-05-27T04:14:23.504Z,15.84
2018-05-27T04:15:32.649Z,15.83
2018-05-27T04:16:41.513Z,15.86
2018-05-27T04:17:50.377Z,15.83
2018-05-27T04:18:59.288Z,15.89
2018-05-27T04:20:08.149Z,15.86
2018-05-27T04:21:17.014Z,15.93
2018-05-27T04:22:25.875Z,15.83
2018-05-27T04:23:34.837Z,15.9
2018-05-27T04:24:43.975Z,15.92
2018-05-27T04:25:52.837Z,16
2018-05-27T04:27:01.699Z,15.97
2018-05-27T04:28:10.568Z,15.83
2018-05-27T04:29:19.431Z,15.86
2018-05-27T04:30:28.295Z,15.84
2018-05-27T04:31:37.717Z,15.82
2018-05-27T04:32:46.856Z,15.9
2018-05-27T04:33:55.721Z,15.9
2018-05-27T04:35:04.583Z,15.97
2018-05-27T04:36:13.494Z,15.97
2018-05-27T04:37:22.356Z,15.93
2018-05-27T04:38:31.218Z,15.97
2018-05-27T04:39:40.078Z,15.8
2018-05-27T04:40:48.939Z,15.86
2018-05-27T04:41:58.080Z,15.89
2018-05-27T04:43:07.218Z,15.89
2018-05-27T04:44:16.083Z,15.8
2018-05-27T04:45:24.947Z,15.8
2018-05-27T04:46:33.808Z,15.82
2018-05-27T04:47:42.669Z,15.87
2018-05-27T04:48:51.533Z,15.9
2018-05-27T04:50:00.394Z,15.9
2018-05-27T04:51:09.255Z,16
2018-05-27T04:52:18.118Z,15.93
2018-05-27T04:53:26.981Z,15.89
2018-05-27T04:54:35.843Z,15.96
2018-05-27T04:55:44.725Z,15.94
2018-05-27T04:56:53.587Z,16.02
2018-05-27T04:58:02.451Z,15.97
2018-05-27T04:59:11.594Z,16.01
2018-05-27T05:00:20.456Z,16.02
2018-05-27T05:01:29.317Z,16.17
2018-05-27T05:02:38.182Z,16.15
2018-05-27T05:03:47.047Z,16.04
2018-05-27T05:04:56.529Z,16.25
2018-05-27T05:06:05.393Z,16.17
2018-05-27T05:07:14.258Z,16.17
2018-05-27T05:08:23.116Z,16.2
2018-05-27T05:09:32.083Z,16.12
2018-05-27T05:10:41.203Z,16.14
2018-05-27T05:11:50.065Z,16.14
2018-05-27T05:12:59.212Z,16.2
2018-05-27T05:14:08.079Z,16.21
2018-05-27T05:15:17.220Z,16.23
2018-05-27T05:16:26.088Z,16.3
2018-05-27T05:17:35.228Z,16.27
2018-05-27T05:18:44.366Z,16.35
2018-05-27T05:19:53.229Z,16.35
2018-05-27T05:21:02.101Z,16.33
2018-05-27T05:22:11.293Z,16.35
2018-05-27T05:23:20.433Z,16.45
2018-05-27T05:24:29.296Z,16.53
2018-05-27T05:25:38.164Z,16.52
2018-05-27T05:26:47.304Z,16.46
2018-05-27T05:27:56.217Z,16.49
2018-05-27T05:29:05.077Z,16.48
2018-05-27T05:30:13.940Z,16.43
2018-05-27T05:31:22.800Z,16.49
2018-05-27T05:32:31.664Z,16.63
2018-05-27T05:33:40.531Z,16.58
2018-05-27T05:34:49.964Z,16.61
2018-05-27T05:35:59.106Z,16.6
2018-05-27T05:37:08.246Z,16.58
2018-05-27T05:38:17.111Z,16.66
2018-05-27T05:39:25.971Z,16.7
2018-05-27T05:40:35.114Z,16.67
2018-05-27T05:41:43.977Z,16.73
2018-05-27T05:42:53.120Z,16.73
2018-05-27T05:44:01.989Z,16.94
2018-05-27T05:45:10.857Z,16.83
2018-05-27T05:46:19.719Z,16.83
2018-05-27T05:47:28.588Z,16.86
2018-05-27T05:48:37.451Z,16.82
2018-05-27T05:49:46.597Z,16.89
2018-05-27T05:50:55.460Z,16.91
2018-05-27T05:52:04.601Z,16.93
2018-05-27T05:53:13.477Z,16.94
2018-05-27T05:54:22.331Z,16.96
2018-05-27T05:55:31.194Z,17.14
2018-05-27T05:56:40.058Z,17.14
2018-05-27T05:57:48.920Z,17.07
2018-05-27T05:58:58.339Z,17.15
2018-05-27T06:00:07.483Z,17.16
2018-05-27T06:01:16.365Z,17.18
2018-05-27T06:02:25.508Z,17.12
2018-05-27T06:03:34.371Z,17.08
2018-05-27T06:04:43.233Z,17.12
2018-05-27T06:05:52.098Z,17.14
2018-05-27T06:07:00.959Z,17.22
2018-05-27T06:08:09.822Z,17.22
2018-05-27T06:09:18.685Z,17.21
2018-05-27T06:10:27.552Z,17.3
2018-05-27T06:11:36.693Z,17.33
2018-05-27T06:12:45.838Z,17.37
2018-05-27T06:13:55.257Z,17.37
2018-05-27T06:15:04.121Z,17.46
2018-05-27T06:16:12.983Z,17.55
2018-05-27T06:17:22.124Z,17.49
2018-05-27T06:18:30.986Z,17.58
2018-05-27T06:19:40.030Z,17.62
2018-05-27T06:20:48.865Z,17.55
2018-05-27T06:21:57.725Z,17.66
2018-05-27T06:23:06.589Z,17.68
2018-05-27T06:24:15.467Z,17.74
2018-05-27T06:25:24.337Z,17.79
2018-05-27T06:26:33.478Z,17.66
2018-05-27T06:27:42.621Z,17.64
2018-05-27T06:28:51.766Z,17.78
2018-05-27T06:30:00.631Z,17.9
2018-05-27T06:31:09.494Z,17.92
2018-05-27T06:32:18.363Z,17.89
2018-05-27T06:33:27.222Z,17.99
2018-05-27T06:34:36.105Z,17.97
2018-05-27T06:35:45.014Z,18.03
2018-05-27T06:36:53.879Z,18
2018-05-27T06:38:02.747Z,17.97
2018-05-27T06:39:11.610Z,18.02
2018-05-27T06:40:20.474Z,18.08
2018-05-27T06:41:29.335Z,18.15
2018-05-27T06:42:38.200Z,18.18
2018-05-27T06:43:47.067Z,18.21
2018-05-27T06:44:55.933Z,18.15
2018-05-27T06:46:05.077Z,18.26
2018-05-27T06:47:13.942Z,18.33
2018-05-27T06:48:22.816Z,18.32
2018-05-27T06:49:31.952Z,18.3
2018-05-27T06:50:40.817Z,18.3
2018-05-27T06:51:49.683Z,18.29
2018-05-27T06:52:58.549Z,18.29
2018-05-27T06:54:07.411Z,18.42
2018-05-27T06:55:16.549Z,18.44
2018-05-27T06:56:25.414Z,18.42
2018-05-27T06:57:34.556Z,18.47
2018-05-27T06:58:43.417Z,18.55
2018-05-27T06:59:52.281Z,18.62
2018-05-27T07:01:01.420Z,18.63
2018-05-27T07:02:10.284Z,18.72
2018-05-27T07:03:19.148Z,18.78
2018-05-27T07:04:28.952Z,18.8
2018-05-27T07:05:38.237Z,18.78
2018-05-27T07:06:47.379Z,18.8
2018-05-27T07:07:56.243Z,18.85
2018-05-27T07:09:05.108Z,18.88
2018-05-27T07:10:14.252Z,18.85
2018-05-27T07:11:23.418Z,18.98
2018-05-27T07:12:32.281Z,18.92
2018-05-27T07:13:41.145Z,18.88
2018-05-27T07:14:50.294Z,18.98
2018-05-27T07:15:59.162Z,18.94
2018-05-27T07:17:08.392Z,19.08
2018-05-27T07:18:17.224Z,19.19
2018-05-27T07:19:26.364Z,19.29
2018-05-27T07:20:35.228Z,19.28
2018-05-27T07:21:44.098Z,19.29
2018-05-27T07:22:53.247Z,19.39
2018-05-27T07:24:02.113Z,19.43
2018-05-27T07:25:10.978Z,19.43
2018-05-27T07:26:19.844Z,19.44
2018-05-27T07:27:28.709Z,19.46
2018-05-27T07:28:37.853Z,19.47
2018-05-27T07:29:46.717Z,19.62
2018-05-27T07:30:55.584Z,19.66
2018-05-27T07:32:04.489Z,19.66
2018-05-27T07:33:13.661Z,19.61
2018-05-27T07:34:22.521Z,19.62
2018-05-27T07:35:31.391Z,19.76
2018-05-27T07:36:40.254Z,19.77
2018-05-27T07:37:49.399Z,19.77
2018-05-27T07:38:58.264Z,19.77
2018-05-27T07:40:07.407Z,19.87
2018-05-27T07:41:16.556Z,19.94
2018-05-27T07:42:25.699Z,20.11
2018-05-27T07:43:34.854Z,20.1
2018-05-27T07:44:43.994Z,20.02
2018-05-27T07:45:52.862Z,20.06
2018-05-27T07:47:01.722Z,20.1
2018-05-27T07:48:10.593Z,20.11
2018-05-27T07:49:19.739Z,20.13
2018-05-27T07:50:28.607Z,20.11
2018-05-27T07:51:37.472Z,20.11
2018-05-27T07:52:46.657Z,20.21
2018-05-27T07:53:55.523Z,20.32
2018-05-27T07:55:04.389Z,20.41
2018-05-27T07:56:13.257Z,20.39
2018-05-27T07:57:22.406Z,20.33
2018-05-27T07:58:31.654Z,20.5
2018-05-27T07:59:40.927Z,20.38
2018-05-27T08:00:49.792Z,20.35
2018-05-27T08:01:58.657Z,20.52
2018-05-27T08:03:07.856Z,20.52
2018-05-27T08:04:16.721Z,20.47
2018-05-27T08:05:25.587Z,20.47
2018-05-27T08:06:34.451Z,20.62
2018-05-27T08:07:43.314Z,20.77
2018-05-27T08:08:52.185Z,20.8
2018-05-27T08:10:01.052Z,20.84
2018-05-27T08:11:10.237Z,20.85
2018-05-27T08:12:19.062Z,20.82
2018-05-27T08:13:27.934Z,20.88
2018-05-27T08:14:36.793Z,20.74
2018-05-27T08:15:45.664Z,20.84
2018-05-27T08:16:54.806Z,20.84
2018-05-27T08:18:04.229Z,20.97
2018-05-27T08:19:13.095Z,21.03
2018-05-27T08:20:22.010Z,21.1
2018-05-27T08:21:31.093Z,21.06
2018-05-27T08:22:39.962Z,21.17
2018-05-27T08:23:49.121Z,21.27
2018-05-27T08:24:58.045Z,21.22
2018-05-27T08:26:07.203Z,21.24
2018-05-27T08:27:16.069Z,21.19
2018-05-27T08:28:24.935Z,21.25
2018-05-27T08:29:33.802Z,21.28
2018-05-27T08:30:42.665Z,21.27
2018-05-27T08:31:51.537Z,21.22
2018-05-27T08:33:00.675Z,21.31
2018-05-27T08:34:09.550Z,21.37
2018-05-27T08:35:18.419Z,21.42
2018-05-27T08:36:27.287Z,21.44
2018-05-27T08:37:36.149Z,21.46
2018-05-27T08:38:45.300Z,21.4
2018-05-27T08:39:54.453Z,21.61
2018-05-27T08:41:03.593Z,21.67
2018-05-27T08:42:12.459Z,21.56
2018-05-27T08:43:21.326Z,21.71
2018-05-27T08:44:30.195Z,21.79
2018-05-27T08:45:39.337Z,21.82
2018-05-27T08:46:48.480Z,21.74
2018-05-27T08:47:57.633Z,21.91
2018-05-27T08:49:06.774Z,21.9
2018-05-27T08:50:15.644Z,21.96
2018-05-27T08:51:24.513Z,21.99
2018-05-27T08:52:33.379Z,22.09
2018-05-27T08:53:42.245Z,21.96
2018-05-27T08:54:51.162Z,22
2018-05-27T08:56:00.029Z,22.15
2018-05-27T08:57:08.900Z,22.12
2018-05-27T08:58:17.768Z,22.24
2018-05-27T08:59:26.636Z,22.33
2018-05-27T09:00:35.504Z,22.36
2018-05-27T09:01:44.373Z,22.25
2018-05-27T09:02:53.240Z,22.33
2018-05-27T09:04:02.105Z,22.21
2018-05-27T09:05:10.973Z,22.28
2018-05-27T09:06:19.839Z,22.35
2018-05-27T09:07:29.259Z,22.36
2018-05-27T09:08:38.124Z,22.37
2018-05-27T09:09:46.990Z,22.47
2018-05-27T09:10:55.857Z,22.52
2018-05-27T09:12:04.719Z,22.43
2018-05-27T09:13:13.587Z,22.61
2018-05-27T09:14:22.456Z,22.58
2018-05-27T09:15:31.323Z,22.61
2018-05-27T09:16:40.469Z,22.75
2018-05-27T09:17:49.333Z,22.77
2018-05-27T09:18:58.200Z,22.79
2018-05-27T09:20:07.071Z,22.97
2018-05-27T09:21:16.217Z,23.07
2018-05-27T09:22:25.083Z,23.1
2018-05-27T09:23:33.952Z,23.05
2018-05-27T09:24:43.384Z,23.04
2018-05-27T09:25:52.252Z,22.95
2018-05-27T09:27:01.119Z,22.85
2018-05-27T09:28:09.993Z,22.92
2018-05-27T09:29:19.467Z,22.85
2018-05-27T09:30:28.334Z,22.97
2018-05-27T09:31:37.205Z,23.09
2018-05-27T09:32:46.629Z,23.17
2018-05-27T09:33:55.773Z,23.36
2018-05-27T09:35:04.640Z,23.33
2018-05-27T09:36:13.789Z,23.39
2018-05-27T09:37:22.656Z,23.33
2018-05-27T09:38:31.530Z,23.28
2018-05-27T09:39:40.391Z,23.5
2018-05-27T09:40:49.821Z,23.6
2018-05-27T09:41:58.699Z,23.66
2018-05-27T09:43:07.567Z,23.61
2018-05-27T09:44:16.436Z,23.68
2018-05-27T09:45:25.697Z,23.65
2018-05-27T09:46:34.572Z,23.63
2018-05-27T09:47:43.441Z,23.69
2018-05-27T09:48:52.870Z,23.65
2018-05-27T09:50:02.019Z,23.58
2018-05-27T09:51:11.315Z,23.6
2018-05-27T09:52:20.112Z,23.55
2018-05-27T09:53:28.983Z,23.2
2018-05-27T09:54:37.854Z,23.53
2018-05-27T09:55:46.719Z,23.73
2018-05-27T09:56:55.871Z,23.69
2018-05-27T09:58:04.831Z,23.79
2018-05-27T09:59:13.628Z,23.88
2018-05-27T10:00:22.502Z,23.88
2018-05-27T10:01:31.700Z,23.94
2018-05-27T10:02:40.567Z,23.95
2018-05-27T10:03:49.487Z,24.08
2018-05-27T10:04:58.354Z,24.1
2018-05-27T10:06:07.503Z,24.08
2018-05-27T10:07:16.367Z,24.15
2018-05-27T10:08:25.246Z,24.24
2018-05-27T10:09:34.112Z,24.34
2018-05-27T10:10:43.263Z,24.3
2018-05-27T10:11:52.486Z,24.34
2018-05-27T10:13:01.358Z,24.39
2018-05-27T10:14:10.223Z,24.46
2018-05-27T10:15:19.375Z,24.6
2018-05-27T10:16:28.255Z,24.62
2018-05-27T10:17:37.505Z,24.49
2018-05-27T10:18:46.367Z,24.3
2018-05-27T10:19:55.520Z,24.46
2018-05-27T10:21:04.447Z,24.53
2018-05-27T10:22:13.594Z,24.52
2018-05-27T10:23:22.464Z,24.58
2018-05-27T10:24:31.329Z,24.61
2018-05-27T10:25:40.197Z,24.73
2018-05-27T10:26:49.340Z,24.71
2018-05-27T10:27:58.485Z,24.68
2018-05-27T10:29:07.627Z,24.77
2018-05-27T10:30:16.495Z,24.77
2018-05-27T10:31:25.367Z,24.84
2018-05-27T10:32:34.231Z,24.81
2018-05-27T10:33:43.099Z,24.84
2018-05-27T10:34:51.967Z,24.77
2018-05-27T10:36:00.835Z,24.83
2018-05-27T10:37:09.979Z,25.02
2018-05-27T10:38:18.946Z,25.23
2018-05-27T10:39:28.102Z,25.28
2018-05-27T10:40:36.971Z,25.21
2018-05-27T10:41:45.840Z,25.21
2018-05-27T10:42:54.706Z,25.25
2018-05-27T10:44:03.580Z,25.35
2018-05-27T10:45:12.737Z,25.28
2018-05-27T10:46:21.882Z,25.42
2018-05-27T10:47:31.031Z,25.42
2018-05-27T10:48:40.175Z,25.47
2018-05-27T10:49:49.042Z,25.33
2018-05-27T10:50:57.912Z,25.46
2018-05-27T10:52:06.812Z,25.5
2018-05-27T10:53:16.007Z,25.47
2018-05-27T10:54:25.170Z,25.51
2018-05-27T10:55:34.015Z,25.5
2018-05-27T10:56:42.882Z,25.7
2018-05-27T10:57:51.748Z,25.61
2018-05-27T10:59:00.620Z,25.7
2018-05-27T11:00:09.763Z,25.83
2018-05-27T11:01:18.712Z,25.9
2018-05-27T11:02:27.577Z,25.9
2018-05-27T11:03:36.719Z,25.82
2018-05-27T11:04:45.593Z,25.9
2018-05-27T11:05:54.462Z,25.88
2018-05-27T11:07:03.477Z,25.97
2018-05-27T11:08:12.494Z,26.12
2018-05-27T11:09:21.378Z,26.06
2018-05-27T11:10:30.798Z,26.09
2018-05-27T11:11:39.669Z,26.21
2018-05-27T11:12:48.586Z,26.09
2018-05-27T11:13:57.733Z,26.05
2018-05-27T11:15:06.603Z,26.17
2018-05-27T11:16:15.473Z,26.39
2018-05-27T11:17:24.617Z,26.44
2018-05-27T11:18:33.487Z,26.44
2018-05-27T11:19:42.356Z,26.47
2018-05-27T11:20:51.225Z,26.5
2018-05-27T11:22:00.380Z,26.69
2018-05-27T11:23:09.244Z,26.62
2018-05-27T11:24:18.116Z,26.66
2018-05-27T11:25:26.987Z,26.87
2018-05-27T11:26:35.855Z,26.97
2018-05-27T11:27:44.725Z,26.99
2018-05-27T11:28:53.593Z,27.14
2018-05-27T11:30:02.514Z,27.32
2018-05-27T11:31:11.388Z,27.51
2018-05-27T11:32:20.817Z,27.82
2018-05-27T11:33:29.684Z,27.81
2018-05-27T11:34:38.553Z,27.87
2018-05-27T11:35:47.424Z,28.03
2018-05-27T11:36:56.326Z,28.22
2018-05-27T11:38:05.169Z,28.21
2018-05-27T11:39:14.037Z,28.36
2018-05-27T11:40:23.182Z,28.37
2018-05-27T11:41:32.051Z,28.36
2018-05-27T11:42:40.922Z,28.51
2018-05-27T11:43:49.797Z,28.54
2018-05-27T11:44:58.664Z,28.56
2018-05-27T11:46:07.809Z,28.64
2018-05-27T11:47:16.734Z,28.81
2018-05-27T11:48:25.604Z,28.85
2018-05-27T11:49:34.472Z,28.89
2018-05-27T11:50:43.345Z,29
2018-05-27T11:51:52.491Z,28.8
2018-05-27T11:53:01.366Z,28.83
2018-05-27T11:54:10.251Z,29.02
2018-05-27T11:55:19.404Z,29.11
2018-05-27T11:56:28.272Z,29.16
2018-05-27T11:57:37.143Z,29.02
2018-05-27T11:58:46.016Z,29.3
2018-05-27T11:59:54.888Z,29.48
2018-05-27T12:01:03.759Z,29.68
2018-05-27T12:02:12.630Z,29.3
2018-05-27T12:03:21.789Z,29.42
2018-05-27T12:04:30.664Z,29.71
2018-05-27T12:05:39.825Z,29.9
2018-05-27T12:06:48.980Z,30.11
2018-05-27T12:07:58.408Z,30.23
2018-05-27T12:09:07.876Z,30.2
2018-05-27T12:10:17.835Z,30.22
2018-05-27T12:11:27.269Z,30.2
2018-05-27T12:12:36.424Z,30.11
2018-05-27T12:13:45.297Z,29.83
2018-05-27T12:14:54.177Z,30.05
2018-05-27T12:16:03.067Z,30.22
2018-05-27T12:17:11.935Z,30.2
2018-05-27T12:18:20.811Z,30.37
2018-05-27T12:19:29.972Z,30.42
2018-05-27T12:20:38.849Z,30.37
2018-05-27T12:21:47.726Z,30.53
2018-05-27T12:22:56.606Z,30.8
2018-05-27T12:24:05.785Z,31.04
2018-05-27T12:25:14.948Z,31.06
2018-05-27T12:26:23.825Z,31.04
2018-05-27T12:27:32.709Z,30.91
2018-05-27T12:28:41.582Z,31.04
2018-05-27T12:29:50.544Z,31.07
2018-05-27T12:30:59.721Z,30.99
2018-05-27T12:32:08.599Z,31.13
2018-05-27T12:33:17.479Z,31.28
2018-05-27T12:34:26.633Z,31.17
2018-05-27T12:35:35.562Z,31.13
2018-05-27T12:36:44.726Z,31.23
2018-05-27T12:37:53.710Z,31.12
2018-05-27T12:39:03.085Z,30.86
2018-05-27T12:40:11.972Z,30.97
2018-05-27T12:41:20.850Z,31.04
2018-05-27T12:42:29.730Z,31.29
2018-05-27T12:43:38.613Z,31.62
2018-05-27T12:44:47.493Z,31.66
2018-05-27T12:45:56.369Z,31.76
2018-05-27T12:47:05.251Z,31.78
2018-05-27T12:48:14.410Z,31.88
2018-05-27T12:49:23.290Z,31.86
2018-05-27T12:50:32.173Z,31.7
2018-05-27T12:51:41.050Z,31.92
2018-05-27T12:52:49.961Z,31.84
2018-05-27T12:53:58.810Z,31.63
2018-05-27T12:55:07.698Z,31.54
2018-05-27T12:56:16.859Z,31.7
2018-05-27T12:57:25.738Z,31.66
2018-05-27T12:58:34.903Z,31.5
2018-05-27T12:59:44.066Z,31.51
2018-05-27T13:00:53.507Z,31.68
2018-05-27T13:02:02.667Z,31.99
2018-05-27T13:03:11.550Z,31.92
2018-05-27T13:04:20.430Z,31.7
2018-05-27T13:05:29.316Z,31.96
2018-05-27T13:06:38.222Z,31.95
2018-05-27T13:07:47.078Z,32.11
2018-05-27T13:08:55.957Z,32.25
2018-05-27T13:10:04.839Z,32.4
2018-05-27T13:11:13.726Z,32.55
2018-05-27T13:12:22.622Z,32.63
2018-05-27T13:13:31.785Z,32.5
2018-05-27T13:14:40.667Z,32.59
2018-05-27T13:15:49.549Z,32.67
2018-05-27T13:16:59.081Z,32.63
2018-05-27T13:18:09.256Z,32.69
2018-05-27T13:19:18.137Z,32.78
2018-05-27T13:20:27.024Z,32.79
2018-05-27T13:21:36.189Z,33.11
2018-05-27T13:22:45.073Z,33.06
2018-05-27T13:23:53.955Z,33.07
2018-05-27T13:25:02.837Z,32.51
2018-05-27T13:26:11.722Z,32.67
2018-05-27T13:27:20.611Z,32.99
2018-05-27T13:28:29.486Z,32.97
2018-05-27T13:29:38.372Z,33.14
2018-05-27T13:30:47.587Z,33.47
2018-05-27T13:31:56.466Z,33.53
2018-05-27T13:33:05.682Z,33.56
2018-05-27T13:34:14.567Z,33.66
2018-05-27T13:35:23.454Z,33.87
2018-05-27T13:36:32.337Z,33.97
2018-05-27T13:37:41.224Z,33.93
2018-05-27T13:38:50.380Z,34.17
2018-05-27T13:39:59.268Z,34.17
2018-05-27T13:41:08.152Z,33.91
2018-05-27T13:42:17.036Z,33.69
2018-05-27T13:43:25.919Z,33.94
2018-05-27T13:44:34.804Z,34
2018-05-27T13:45:43.700Z,34.08
2018-05-27T13:46:52.654Z,34.16
2018-05-27T13:48:01.536Z,34.15
2018-05-27T13:49:10.477Z,34.3
2018-05-27T13:50:20.253Z,34.27
2018-05-27T13:51:29.138Z,34.05
2018-05-27T13:52:38.021Z,33.71
2018-05-27T13:53:46.904Z,33.84
2018-05-27T13:54:56.072Z,33.94
2018-05-27T13:56:04.955Z,33.95
2018-05-27T13:57:13.838Z,33.95
2018-05-27T13:58:23.001Z,34.17
2018-05-27T13:59:31.892Z,34.43
2018-05-27T14:00:40.780Z,34.5
2018-05-27T14:01:49.941Z,34.28
2018-05-27T14:02:58.828Z,34.06
2018-05-27T14:04:07.708Z,34
2018-05-27T14:05:16.871Z,34.13
2018-05-27T14:06:26.314Z,34
2018-05-27T14:07:35.205Z,34
2018-05-27T14:08:44.088Z,34.02
2018-05-27T14:09:52.974Z,34.27
2018-05-27T14:11:01.860Z,34.42
2018-05-27T14:12:10.744Z,34.73
2018-05-27T14:13:19.628Z,34.84
2018-05-27T14:14:28.797Z,34.82
2018-05-27T14:15:37.684Z,34.65
2018-05-27T14:16:46.844Z,34.54
2018-05-27T14:17:55.733Z,34.75
2018-05-27T14:19:04.614Z,34.24
2018-05-27T14:20:13.498Z,33.86
2018-05-27T14:21:22.382Z,33.94
2018-05-27T14:22:31.651Z,33.65
2018-05-27T14:23:40.531Z,33.54
2018-05-27T14:24:49.420Z,33.72
2018-05-27T14:25:58.308Z,33.88
2018-05-27T14:27:07.748Z,34.03
2018-05-27T14:28:16.635Z,34.13
2018-05-27T14:29:26.205Z,34.25
2018-05-27T14:30:35.534Z,34.42
2018-05-27T14:31:44.780Z,34.62
2018-05-27T14:32:53.664Z,34.7
2018-05-27T14:34:02.549Z,34.88
2018-05-27T14:35:11.432Z,34.73
2018-05-27T14:36:20.326Z,34.85
2018-05-27T14:37:29.497Z,34.56
2018-05-27T14:38:38.380Z,34.8
2018-05-27T14:39:47.267Z,34.75
2018-05-27T14:40:56.430Z,34.64
2018-05-27T14:42:05.321Z,34.69
2018-05-27T14:43:14.220Z,34.77
2018-05-27T14:44:23.104Z,35.06
2018-05-27T14:45:31.989Z,34.97
2018-05-27T14:46:40.877Z,34.37
2018-05-27T14:47:49.763Z,33.94
2018-05-27T14:49:00.554Z,33.44
2018-05-27T14:50:11.095Z,33.63
2018-05-27T14:51:19.979Z,33.81
2018-05-27T14:52:28.864Z,34.22